FKH4102 UGSB-UZTT
Flight info
| Callsign | FKH4102 |
|---|---|
| Flight time | 2h 47m |
| Altitude | 33000 |
| Route | BARUS M747 LUSAL N199 RASAM L88 METKA B476 IZGAR/N0459F350 B476 DARVA/K0852F350 T898 OGOLI N193 DIBAD DIBAD2T |
| Aircraft | B753/M-SDE2E3FGHIJ3J4J7RWXY/LB1 |
Departure
| Time | 2026-04-30 10:56 |
|---|---|
| Airport | Alexander Kartveli Batumi International Airport (UGSB) |
Arrival
| Time | 2026-04-30 13:43 |
|---|---|
| Airport | Tashkent International Airport (UZTT) |
| Time | Latitude | Longitude | Altitude | Speed | Heading |
|---|---|---|---|---|---|
| 2026-04-30 10:29 | 41.60576 | 41.61086 | 38 ft | 0 kts | 45° |
| 2026-04-30 10:50 | 41.60569 | 41.61076 | 37 ft | 2 kts | 45° |
| 2026-04-30 10:50 | 41.60558 | 41.61062 | 37 ft | 2 kts | 45° |
| 2026-04-30 10:50 | 41.60547 | 41.61048 | 37 ft | 2 kts | 45° |
| 2026-04-30 10:51 | 41.60541 | 41.61032 | 37 ft | 1 kts | 99° |
| 2026-04-30 10:51 | 41.60544 | 41.61020 | 37 ft | 0 kts | 135° |
| 2026-04-30 10:51 | 41.60548 | 41.61017 | 37 ft | 1 kts | 139° |
| 2026-04-30 10:51 | 41.60549 | 41.61015 | 37 ft | 0 kts | 137° |
| 2026-04-30 10:53 | 41.60545 | 41.61021 | 37 ft | 4 kts | 135° |
| 2026-04-30 10:54 | 41.60508 | 41.61068 | 36 ft | 8 kts | 137° |
| 2026-04-30 10:54 | 41.60461 | 41.61090 | 35 ft | 6 kts | 192° |
| 2026-04-30 10:54 | 41.60416 | 41.61076 | 34 ft | 6 kts | 197° |
| 2026-04-30 10:54 | 41.60367 | 41.61055 | 33 ft | 9 kts | 198° |
| 2026-04-30 10:55 | 41.60331 | 41.61019 | 33 ft | 5 kts | 264° |
| 2026-04-30 10:55 | 41.60339 | 41.60987 | 33 ft | 4 kts | 304° |
| 2026-04-30 10:55 | 41.60433 | 41.60841 | 32 ft | 53 kts | 311° |
| 2026-04-30 10:55 | 41.60849 | 41.60197 | 31 ft | 127 kts | 312° |
| 2026-04-30 10:56 | 41.61563 | 41.59099 | 182 ft | 176 kts | 309° |
| 2026-04-30 10:56 | 41.62335 | 41.57864 | 1126 ft | 175 kts | 311° |
| 2026-04-30 10:56 | 41.63121 | 41.56682 | 1925 ft | 176 kts | 313° |
| 2026-04-30 10:56 | 41.64024 | 41.55399 | 2163 ft | 200 kts | 322° |
| 2026-04-30 10:57 | 41.65356 | 41.54582 | 2438 ft | 224 kts | 356° |
| 2026-04-30 10:57 | 41.66940 | 41.54991 | 2815 ft | 244 kts | 32° |
| 2026-04-30 10:57 | 41.68124 | 41.56612 | 3504 ft | 254 kts | 58° |
| 2026-04-30 10:57 | 41.69031 | 41.58672 | 4195 ft | 264 kts | 59° |
| 2026-04-30 10:58 | 41.69991 | 41.60774 | 4900 ft | 274 kts | 56° |
| 2026-04-30 10:58 | 41.71042 | 41.62879 | 5759 ft | 276 kts | 54° |
| 2026-04-30 10:58 | 41.72160 | 41.65012 | 6500 ft | 283 kts | 53° |
| 2026-04-30 10:58 | 41.73313 | 41.67153 | 7145 ft | 292 kts | 53° |
| 2026-04-30 10:59 | 41.74510 | 41.69314 | 8158 ft | 286 kts | 53° |
| 2026-04-30 10:59 | 41.75721 | 41.71518 | 8538 ft | 308 kts | 53° |
| 2026-04-30 10:59 | 41.76972 | 41.73771 | 9532 ft | 298 kts | 52° |
| 2026-04-30 10:59 | 41.78239 | 41.76035 | 10039 ft | 311 kts | 52° |
| 2026-04-30 11:00 | 41.79553 | 41.78365 | 10697 ft | 319 kts | 51° |
| 2026-04-30 11:00 | 41.80929 | 41.80798 | 10980 ft | 340 kts | 52° |
| 2026-04-30 11:00 | 41.82386 | 41.83398 | 11280 ft | 360 kts | 52° |
| 2026-04-30 11:00 | 41.83929 | 41.86160 | 11593 ft | 378 kts | 52° |
| 2026-04-30 11:01 | 41.85523 | 41.89024 | 12140 ft | 388 kts | 52° |
| 2026-04-30 11:01 | 41.87106 | 41.91952 | 12887 ft | 393 kts | 57° |
| 2026-04-30 11:01 | 41.88247 | 41.95269 | 13559 ft | 398 kts | 73° |
| 2026-04-30 11:01 | 41.88929 | 41.98876 | 14253 ft | 403 kts | 75° |
| 2026-04-30 11:02 | 41.89604 | 42.02555 | 14907 ft | 409 kts | 76° |
| 2026-04-30 11:02 | 41.90271 | 42.06250 | 15565 ft | 413 kts | 76° |
| 2026-04-30 11:02 | 41.90942 | 42.09999 | 16249 ft | 417 kts | 76° |
| 2026-04-30 11:02 | 41.91615 | 42.13776 | 16885 ft | 421 kts | 76° |
| 2026-04-30 11:03 | 41.92298 | 42.17632 | 17470 ft | 425 kts | 76° |
| 2026-04-30 11:03 | 41.92978 | 42.21475 | 18094 ft | 429 kts | 76° |
| 2026-04-30 11:03 | 41.93674 | 42.25419 | 18645 ft | 434 kts | 76° |
| 2026-04-30 11:04 | 41.95061 | 42.33314 | 19727 ft | 442 kts | 76° |
| 2026-04-30 11:04 | 41.95768 | 42.37350 | 20229 ft | 447 kts | 76° |
| 2026-04-30 11:04 | 41.96485 | 42.41455 | 20740 ft | 452 kts | 76° |
| 2026-04-30 11:04 | 41.97198 | 42.45548 | 21202 ft | 457 kts | 76° |
| 2026-04-30 11:05 | 41.97925 | 42.49724 | 21759 ft | 459 kts | 75° |
| 2026-04-30 11:05 | 41.98529 | 42.53973 | 22156 ft | 466 kts | 83° |
| 2026-04-30 11:05 | 41.98619 | 42.58305 | 22724 ft | 468 kts | 94° |
| 2026-04-30 11:05 | 41.98191 | 42.62617 | 23129 ft | 472 kts | 103° |
| 2026-04-30 11:06 | 41.97220 | 42.66876 | 23590 ft | 474 kts | 114° |
| 2026-04-30 11:06 | 41.95800 | 42.70832 | 24028 ft | 475 kts | 121° |
| 2026-04-30 11:06 | 41.94216 | 42.74761 | 24479 ft | 479 kts | 121° |
| 2026-04-30 11:06 | 41.92623 | 42.78671 | 24934 ft | 482 kts | 121° |
| 2026-04-30 11:07 | 41.91030 | 42.82643 | 25363 ft | 486 kts | 117° |
| 2026-04-30 11:07 | 41.89791 | 42.86874 | 25716 ft | 492 kts | 108° |
| 2026-04-30 11:07 | 41.88769 | 42.91243 | 26165 ft | 494 kts | 108° |
| 2026-04-30 11:07 | 41.87730 | 42.95648 | 26543 ft | 498 kts | 108° |
| 2026-04-30 11:08 | 41.86688 | 43.00096 | 26964 ft | 500 kts | 108° |
| 2026-04-30 11:08 | 41.85652 | 43.04510 | 27322 ft | 503 kts | 108° |
| 2026-04-30 11:08 | 41.84592 | 43.09034 | 27663 ft | 508 kts | 108° |
| 2026-04-30 11:08 | 41.83542 | 43.13508 | 28101 ft | 509 kts | 108° |
| 2026-04-30 11:09 | 41.82481 | 43.18020 | 28397 ft | 513 kts | 108° |
| 2026-04-30 11:09 | 41.81401 | 43.22607 | 28782 ft | 515 kts | 108° |
| 2026-04-30 11:09 | 41.80330 | 43.27146 | 29153 ft | 517 kts | 108° |
| 2026-04-30 11:09 | 41.79246 | 43.31727 | 29466 ft | 520 kts | 108° |
| 2026-04-30 11:10 | 41.78143 | 43.36386 | 29883 ft | 521 kts | 108° |
| 2026-04-30 11:10 | 41.77047 | 43.41005 | 30133 ft | 526 kts | 108° |
| 2026-04-30 11:10 | 41.75933 | 43.45692 | 30456 ft | 528 kts | 108° |
| 2026-04-30 11:10 | 41.74836 | 43.50293 | 30945 ft | 527 kts | 108° |
| 2026-04-30 11:11 | 41.73711 | 43.55007 | 31344 ft | 526 kts | 108° |
| 2026-04-30 11:11 | 41.72600 | 43.59654 | 31780 ft | 525 kts | 108° |
| 2026-04-30 11:11 | 41.71494 | 43.64266 | 32167 ft | 525 kts | 108° |
| 2026-04-30 11:11 | 41.70379 | 43.68910 | 32556 ft | 524 kts | 108° |
| 2026-04-30 11:12 | 41.69255 | 43.73579 | 32910 ft | 523 kts | 108° |
| 2026-04-30 11:12 | 41.68146 | 43.78179 | 33108 ft | 521 kts | 108° |
| 2026-04-30 11:12 | 41.67034 | 43.82779 | 33106 ft | 520 kts | 108° |
| 2026-04-30 11:13 | 41.64823 | 43.91900 | 33110 ft | 521 kts | 108° |
| 2026-04-30 11:13 | 41.62586 | 44.01093 | 33116 ft | 520 kts | 108° |
| 2026-04-30 11:14 | 41.60341 | 44.10283 | 33114 ft | 520 kts | 108° |
| 2026-04-30 11:14 | 41.58107 | 44.19394 | 33136 ft | 519 kts | 108° |
| 2026-04-30 11:15 | 41.55862 | 44.28516 | 33131 ft | 519 kts | 108° |
| 2026-04-30 11:15 | 41.53662 | 44.37427 | 33118 ft | 518 kts | 108° |
| 2026-04-30 11:16 | 41.51387 | 44.46604 | 33122 ft | 519 kts | 108° |
| 2026-04-30 11:16 | 41.49164 | 44.55537 | 33113 ft | 517 kts | 108° |
| 2026-04-30 11:17 | 41.46901 | 44.64592 | 33111 ft | 518 kts | 108° |
| 2026-04-30 11:17 | 41.44624 | 44.73675 | 33098 ft | 517 kts | 109° |
| 2026-04-30 11:18 | 41.42347 | 44.82721 | 33103 ft | 518 kts | 109° |
| 2026-04-30 11:18 | 41.38908 | 44.96319 | 33104 ft | 517 kts | 109° |
| 2026-04-30 11:19 | 41.36613 | 45.05349 | 33101 ft | 518 kts | 109° |
| 2026-04-30 11:19 | 41.34306 | 45.14386 | 33093 ft | 516 kts | 109° |
| 2026-04-30 11:20 | 41.32001 | 45.23379 | 33088 ft | 516 kts | 109° |
| 2026-04-30 11:20 | 41.29686 | 45.32379 | 33080 ft | 516 kts | 109° |
| 2026-04-30 11:21 | 41.27379 | 45.41316 | 33084 ft | 515 kts | 108° |
| 2026-04-30 11:21 | 41.25050 | 45.50305 | 33081 ft | 515 kts | 109° |
| 2026-04-30 11:22 | 41.22715 | 45.59284 | 33092 ft | 514 kts | 109° |
| 2026-04-30 11:22 | 41.20364 | 45.68276 | 33086 ft | 515 kts | 109° |
| 2026-04-30 11:23 | 41.18003 | 45.77247 | 33085 ft | 515 kts | 109° |
| 2026-04-30 11:24 | 41.14470 | 45.90619 | 33075 ft | 514 kts | 109° |
| 2026-04-30 11:24 | 41.12101 | 45.99542 | 33070 ft | 513 kts | 109° |
| 2026-04-30 11:25 | 41.08527 | 46.12946 | 33070 ft | 513 kts | 109° |
| 2026-04-30 11:26 | 41.03756 | 46.30729 | 33071 ft | 513 kts | 110° |
| 2026-04-30 11:26 | 41.01371 | 46.39671 | 33079 ft | 512 kts | 109° |
| 2026-04-30 11:27 | 40.99010 | 46.48492 | 33070 ft | 512 kts | 109° |
| 2026-04-30 11:27 | 40.96608 | 46.57398 | 33081 ft | 511 kts | 110° |
| 2026-04-30 11:28 | 40.93036 | 46.70650 | 33071 ft | 512 kts | 110° |
| 2026-04-30 11:29 | 40.90646 | 46.79472 | 33077 ft | 512 kts | 110° |
| 2026-04-30 11:29 | 40.87005 | 46.92799 | 33076 ft | 512 kts | 110° |
| 2026-04-30 11:30 | 40.83383 | 47.05980 | 33087 ft | 511 kts | 110° |
| 2026-04-30 11:31 | 40.80951 | 47.14787 | 33094 ft | 509 kts | 110° |
| 2026-04-30 11:31 | 40.78524 | 47.23489 | 33094 ft | 510 kts | 111° |
| 2026-04-30 11:32 | 40.76076 | 47.32236 | 33111 ft | 510 kts | 110° |
| 2026-04-30 11:32 | 40.73625 | 47.40969 | 33118 ft | 509 kts | 111° |
| 2026-04-30 11:33 | 40.69957 | 47.54028 | 33119 ft | 508 kts | 111° |
| 2026-04-30 11:33 | 40.67491 | 47.62769 | 33123 ft | 508 kts | 111° |
| 2026-04-30 11:34 | 40.65021 | 47.71492 | 33119 ft | 508 kts | 111° |
| 2026-04-30 11:34 | 40.62560 | 47.80152 | 33115 ft | 508 kts | 111° |
| 2026-04-30 11:35 | 40.60090 | 47.88833 | 33123 ft | 509 kts | 110° |
| 2026-04-30 11:35 | 40.58645 | 47.97860 | 33140 ft | 510 kts | 92° |
| 2026-04-30 11:36 | 40.58740 | 48.07154 | 33130 ft | 509 kts | 88° |
| 2026-04-30 11:36 | 40.58953 | 48.16383 | 33121 ft | 508 kts | 87° |
| 2026-04-30 11:37 | 40.59187 | 48.25670 | 33128 ft | 508 kts | 87° |
| 2026-04-30 11:37 | 40.59420 | 48.34907 | 33133 ft | 508 kts | 87° |
| 2026-04-30 11:38 | 40.59651 | 48.44230 | 33131 ft | 510 kts | 87° |
| 2026-04-30 11:38 | 40.59874 | 48.53507 | 33127 ft | 509 kts | 87° |
| 2026-04-30 11:39 | 40.60090 | 48.62764 | 33137 ft | 508 kts | 87° |
| 2026-04-30 11:39 | 40.60300 | 48.72083 | 33132 ft | 509 kts | 88° |
| 2026-04-30 11:40 | 40.60501 | 48.81350 | 33121 ft | 511 kts | 88° |
| 2026-04-30 11:40 | 40.60695 | 48.90629 | 33125 ft | 510 kts | 88° |
| 2026-04-30 11:41 | 40.60883 | 48.99934 | 33117 ft | 509 kts | 88° |
| 2026-04-30 11:41 | 40.61063 | 49.09255 | 33130 ft | 510 kts | 88° |
| 2026-04-30 11:42 | 40.61235 | 49.18531 | 33138 ft | 508 kts | 88° |
| 2026-04-30 11:42 | 40.61731 | 49.27756 | 33148 ft | 508 kts | 85° |
| 2026-04-30 11:43 | 40.62272 | 49.37029 | 33154 ft | 509 kts | 85° |
| 2026-04-30 11:43 | 40.62803 | 49.46300 | 33162 ft | 507 kts | 85° |
| 2026-04-30 11:44 | 40.63320 | 49.55494 | 33164 ft | 507 kts | 85° |
| 2026-04-30 11:44 | 40.63834 | 49.64784 | 33166 ft | 509 kts | 85° |
| 2026-04-30 11:45 | 40.64336 | 49.73985 | 33159 ft | 507 kts | 86° |
| 2026-04-30 11:45 | 40.64834 | 49.83247 | 33162 ft | 506 kts | 86° |
| 2026-04-30 11:46 | 40.65319 | 49.92415 | 33167 ft | 506 kts | 86° |
| 2026-04-30 11:46 | 40.65801 | 50.01658 | 33172 ft | 505 kts | 86° |
| 2026-04-30 11:47 | 40.66270 | 50.10819 | 33166 ft | 505 kts | 86° |
| 2026-04-30 11:47 | 40.66736 | 50.20026 | 33171 ft | 505 kts | 86° |
| 2026-04-30 11:48 | 40.67195 | 50.29259 | 33174 ft | 505 kts | 86° |
| 2026-04-30 11:48 | 40.67645 | 50.38466 | 33171 ft | 504 kts | 86° |
| 2026-04-30 11:49 | 40.68087 | 50.47678 | 33176 ft | 506 kts | 86° |
| 2026-04-30 11:49 | 40.68519 | 50.56818 | 33169 ft | 505 kts | 86° |
| 2026-04-30 11:50 | 40.68951 | 50.66057 | 33170 ft | 504 kts | 87° |
| 2026-04-30 11:50 | 40.69368 | 50.75255 | 33166 ft | 505 kts | 87° |
| 2026-04-30 11:51 | 40.69780 | 50.84448 | 33152 ft | 504 kts | 87° |
| 2026-04-30 11:51 | 40.70183 | 50.93605 | 33171 ft | 504 kts | 88° |
| 2026-04-30 11:52 | 40.70581 | 51.02815 | 33160 ft | 502 kts | 88° |
| 2026-04-30 11:52 | 40.70971 | 51.12022 | 33154 ft | 501 kts | 88° |
| 2026-04-30 11:53 | 40.71351 | 51.21156 | 33152 ft | 502 kts | 88° |
| 2026-04-30 11:53 | 40.71726 | 51.30332 | 33154 ft | 502 kts | 88° |
| 2026-04-30 11:54 | 40.72094 | 51.39542 | 33139 ft | 503 kts | 88° |
| 2026-04-30 11:54 | 40.72492 | 51.48677 | 33133 ft | 503 kts | 84° |
| 2026-04-30 11:55 | 40.73832 | 51.57742 | 33141 ft | 505 kts | 78° |
| 2026-04-30 11:55 | 40.75285 | 51.66653 | 33130 ft | 504 kts | 78° |
| 2026-04-30 11:56 | 40.76756 | 51.75653 | 33128 ft | 504 kts | 78° |
| 2026-04-30 11:56 | 40.78207 | 51.84553 | 33133 ft | 503 kts | 78° |
| 2026-04-30 11:57 | 40.79671 | 51.93568 | 33132 ft | 503 kts | 79° |
| 2026-04-30 11:57 | 40.81125 | 52.02570 | 33130 ft | 503 kts | 78° |
| 2026-04-30 11:58 | 40.82577 | 52.11598 | 33130 ft | 503 kts | 79° |
| 2026-04-30 11:58 | 40.84020 | 52.20626 | 33128 ft | 503 kts | 78° |
| 2026-04-30 11:59 | 40.85458 | 52.29669 | 33125 ft | 504 kts | 79° |
| 2026-04-30 11:59 | 40.86883 | 52.38678 | 33121 ft | 504 kts | 79° |
| 2026-04-30 12:00 | 40.88308 | 52.47736 | 33120 ft | 505 kts | 79° |
| 2026-04-30 12:00 | 40.89718 | 52.56744 | 33115 ft | 503 kts | 79° |
| 2026-04-30 12:01 | 40.90506 | 52.65844 | 33112 ft | 502 kts | 88° |
| 2026-04-30 12:01 | 40.90940 | 52.75019 | 33102 ft | 501 kts | 88° |
| 2026-04-30 12:02 | 40.91346 | 52.84215 | 33102 ft | 502 kts | 88° |
| 2026-04-30 12:02 | 40.91736 | 52.93399 | 33110 ft | 503 kts | 89° |
| 2026-04-30 12:03 | 40.92302 | 53.07210 | 33117 ft | 503 kts | 89° |
| 2026-04-30 12:04 | 40.92665 | 53.16386 | 33109 ft | 501 kts | 89° |
| 2026-04-30 12:04 | 40.93015 | 53.25585 | 33111 ft | 502 kts | 89° |
| 2026-04-30 12:05 | 40.93356 | 53.34756 | 33103 ft | 501 kts | 89° |
| 2026-04-30 12:05 | 40.93689 | 53.43946 | 33099 ft | 501 kts | 89° |
| 2026-04-30 12:06 | 40.94013 | 53.53094 | 33098 ft | 501 kts | 89° |
| 2026-04-30 12:06 | 40.94336 | 53.62276 | 33096 ft | 500 kts | 89° |
| 2026-04-30 12:07 | 40.94651 | 53.71497 | 33080 ft | 498 kts | 90° |
| 2026-04-30 12:07 | 40.94954 | 53.80630 | 33083 ft | 500 kts | 89° |
| 2026-04-30 12:08 | 40.95251 | 53.89769 | 33076 ft | 498 kts | 89° |
| 2026-04-30 12:08 | 40.95541 | 53.98903 | 33081 ft | 497 kts | 89° |
| 2026-04-30 12:09 | 40.95821 | 54.07961 | 33067 ft | 496 kts | 90° |
| 2026-04-30 12:09 | 40.96095 | 54.17072 | 33067 ft | 496 kts | 90° |
| 2026-04-30 12:10 | 40.96361 | 54.26176 | 33073 ft | 498 kts | 90° |
| 2026-04-30 12:10 | 40.96622 | 54.35294 | 33068 ft | 497 kts | 90° |
| 2026-04-30 12:11 | 40.96875 | 54.44397 | 33064 ft | 497 kts | 90° |
| 2026-04-30 12:11 | 40.97120 | 54.53527 | 33069 ft | 498 kts | 90° |
| 2026-04-30 12:12 | 40.97359 | 54.62648 | 33062 ft | 498 kts | 90° |
| 2026-04-30 12:12 | 40.97592 | 54.71801 | 33046 ft | 498 kts | 90° |
| 2026-04-30 12:13 | 40.97816 | 54.80935 | 33061 ft | 499 kts | 90° |
| 2026-04-30 12:13 | 40.98087 | 54.90112 | 33059 ft | 498 kts | 86° |
| 2026-04-30 12:14 | 40.98858 | 54.99159 | 33052 ft | 498 kts | 86° |
| 2026-04-30 12:14 | 40.99617 | 55.08304 | 33050 ft | 499 kts | 86° |
| 2026-04-30 12:15 | 41.00358 | 55.17395 | 33061 ft | 500 kts | 86° |
| 2026-04-30 12:15 | 41.01091 | 55.26499 | 33051 ft | 499 kts | 86° |
| 2026-04-30 12:16 | 41.01816 | 55.35608 | 33046 ft | 502 kts | 86° |
| 2026-04-30 12:16 | 41.02540 | 55.44794 | 33049 ft | 500 kts | 86° |
| 2026-04-30 12:17 | 41.03608 | 55.58530 | 33044 ft | 501 kts | 87° |
| 2026-04-30 12:17 | 41.04313 | 55.67715 | 33034 ft | 503 kts | 88° |
| 2026-04-30 12:18 | 41.05010 | 55.76891 | 33022 ft | 502 kts | 88° |
| 2026-04-30 12:18 | 41.05698 | 55.86063 | 33020 ft | 501 kts | 88° |
| 2026-04-30 12:19 | 41.06376 | 55.95179 | 33018 ft | 500 kts | 88° |
| 2026-04-30 12:19 | 41.07050 | 56.04345 | 33010 ft | 501 kts | 89° |
| 2026-04-30 12:20 | 41.07716 | 56.13524 | 33018 ft | 501 kts | 88° |
| 2026-04-30 12:20 | 41.08372 | 56.22647 | 33034 ft | 502 kts | 88° |
| 2026-04-30 12:21 | 41.09026 | 56.31848 | 33033 ft | 504 kts | 89° |
| 2026-04-30 12:21 | 41.09678 | 56.41114 | 33028 ft | 502 kts | 89° |
| 2026-04-30 12:22 | 41.10315 | 56.50287 | 33017 ft | 503 kts | 89° |
| 2026-04-30 12:22 | 41.10945 | 56.59467 | 33024 ft | 501 kts | 89° |
| 2026-04-30 12:23 | 41.11565 | 56.68606 | 33018 ft | 501 kts | 90° |
| 2026-04-30 12:23 | 41.12183 | 56.77817 | 33016 ft | 501 kts | 90° |
| 2026-04-30 12:24 | 41.12791 | 56.87001 | 33015 ft | 502 kts | 90° |
| 2026-04-30 12:24 | 41.13391 | 56.96177 | 33009 ft | 501 kts | 90° |
| 2026-04-30 12:25 | 41.13985 | 57.05365 | 33004 ft | 502 kts | 90° |
| 2026-04-30 12:25 | 41.14576 | 57.14623 | 33003 ft | 501 kts | 90° |
| 2026-04-30 12:26 | 41.15155 | 57.23828 | 32999 ft | 502 kts | 90° |
| 2026-04-30 12:26 | 41.15725 | 57.32982 | 32999 ft | 502 kts | 90° |
| 2026-04-30 12:27 | 41.16289 | 57.42180 | 32993 ft | 501 kts | 90° |
| 2026-04-30 12:27 | 41.16846 | 57.51357 | 32994 ft | 501 kts | 90° |
| 2026-04-30 12:28 | 41.17393 | 57.60513 | 32991 ft | 501 kts | 90° |
| 2026-04-30 12:28 | 41.17938 | 57.69745 | 32981 ft | 502 kts | 91° |
| 2026-04-30 12:29 | 41.18473 | 57.78946 | 32987 ft | 503 kts | 91° |
| 2026-04-30 12:29 | 41.19003 | 57.88198 | 32992 ft | 503 kts | 91° |
| 2026-04-30 12:30 | 41.19526 | 57.97435 | 32980 ft | 502 kts | 91° |
| 2026-04-30 12:30 | 41.20039 | 58.06636 | 32982 ft | 503 kts | 91° |
| 2026-04-30 12:31 | 41.20546 | 58.15848 | 32983 ft | 501 kts | 91° |
| 2026-04-30 12:31 | 41.21043 | 58.25048 | 32985 ft | 502 kts | 91° |
| 2026-04-30 12:32 | 41.21534 | 58.34246 | 32996 ft | 500 kts | 91° |
| 2026-04-30 12:32 | 41.22020 | 58.43492 | 32990 ft | 502 kts | 91° |
| 2026-04-30 12:33 | 41.22496 | 58.52689 | 32995 ft | 502 kts | 91° |
| 2026-04-30 12:33 | 41.22964 | 58.61895 | 32985 ft | 503 kts | 91° |
| 2026-04-30 12:34 | 41.23428 | 58.71141 | 32982 ft | 501 kts | 91° |
| 2026-04-30 12:34 | 41.23882 | 58.80350 | 32980 ft | 502 kts | 91° |
| 2026-04-30 12:35 | 41.24331 | 58.89613 | 32985 ft | 502 kts | 91° |
| 2026-04-30 12:35 | 41.24771 | 58.98820 | 32985 ft | 500 kts | 91° |
| 2026-04-30 12:36 | 41.25201 | 59.08017 | 32978 ft | 501 kts | 91° |
| 2026-04-30 12:36 | 41.25625 | 59.17216 | 32990 ft | 503 kts | 91° |
| 2026-04-30 12:37 | 41.26044 | 59.26468 | 32981 ft | 504 kts | 91° |
| 2026-04-30 12:37 | 41.26458 | 59.35777 | 32984 ft | 505 kts | 91° |
| 2026-04-30 12:38 | 41.26863 | 59.45038 | 32985 ft | 505 kts | 91° |
| 2026-04-30 12:38 | 41.27264 | 59.54387 | 32982 ft | 506 kts | 91° |
| 2026-04-30 12:39 | 41.27655 | 59.63683 | 32982 ft | 506 kts | 91° |
| 2026-04-30 12:39 | 41.28038 | 59.72979 | 32975 ft | 507 kts | 91° |
| 2026-04-30 12:40 | 41.28417 | 59.82328 | 32974 ft | 508 kts | 91° |
| 2026-04-30 12:40 | 41.28788 | 59.91701 | 32982 ft | 508 kts | 91° |
| 2026-04-30 12:41 | 41.29151 | 60.01087 | 32981 ft | 510 kts | 91° |
| 2026-04-30 12:41 | 41.29508 | 60.10438 | 32982 ft | 508 kts | 91° |
| 2026-04-30 12:42 | 41.29855 | 60.19787 | 32971 ft | 508 kts | 91° |
| 2026-04-30 12:42 | 41.30196 | 60.29138 | 32968 ft | 507 kts | 91° |
| 2026-04-30 12:43 | 41.30526 | 60.38450 | 32959 ft | 507 kts | 90° |
| 2026-04-30 12:43 | 41.30944 | 60.47784 | 32959 ft | 507 kts | 89° |
| 2026-04-30 12:44 | 41.31450 | 60.57132 | 32952 ft | 506 kts | 89° |
| 2026-04-30 12:44 | 41.31939 | 60.66405 | 32959 ft | 505 kts | 90° |
| 2026-04-30 12:45 | 41.32421 | 60.75670 | 32946 ft | 503 kts | 90° |
| 2026-04-30 12:45 | 41.32894 | 60.84948 | 32949 ft | 504 kts | 89° |
| 2026-04-30 12:46 | 41.33362 | 60.94249 | 32947 ft | 504 kts | 89° |
| 2026-04-30 12:46 | 41.33743 | 61.01926 | 32948 ft | 505 kts | 89° |
| 2026-04-30 12:47 | 41.34270 | 61.12752 | 32945 ft | 503 kts | 89° |
| 2026-04-30 12:47 | 41.34715 | 61.22052 | 32954 ft | 502 kts | 89° |
| 2026-04-30 12:48 | 41.35148 | 61.31245 | 32942 ft | 501 kts | 89° |
| 2026-04-30 12:48 | 41.35575 | 61.40487 | 32944 ft | 500 kts | 89° |
| 2026-04-30 12:49 | 41.35994 | 61.49657 | 32949 ft | 500 kts | 89° |
| 2026-04-30 12:49 | 41.36411 | 61.58892 | 32918 ft | 499 kts | 89° |
| 2026-04-30 12:50 | 41.36815 | 61.68047 | 32919 ft | 499 kts | 89° |
| 2026-04-30 12:50 | 41.37216 | 61.77277 | 32929 ft | 498 kts | 90° |
| 2026-04-30 12:51 | 41.37607 | 61.86451 | 32912 ft | 497 kts | 89° |
| 2026-04-30 12:51 | 41.37989 | 61.95593 | 32909 ft | 498 kts | 89° |
| 2026-04-30 12:52 | 41.38367 | 62.04808 | 32906 ft | 496 kts | 89° |
| 2026-04-30 12:52 | 41.38734 | 62.13939 | 32904 ft | 496 kts | 89° |
| 2026-04-30 12:53 | 41.39096 | 62.23109 | 32897 ft | 497 kts | 89° |
| 2026-04-30 12:53 | 41.39450 | 62.32275 | 32889 ft | 496 kts | 89° |
| 2026-04-30 12:54 | 41.39796 | 62.41426 | 32901 ft | 497 kts | 89° |
| 2026-04-30 12:54 | 41.40136 | 62.50581 | 32894 ft | 497 kts | 89° |
| 2026-04-30 12:55 | 41.40499 | 62.59789 | 32900 ft | 497 kts | 89° |
| 2026-04-30 12:55 | 41.40855 | 62.68944 | 32887 ft | 495 kts | 89° |
| 2026-04-30 12:56 | 41.41201 | 62.78059 | 32889 ft | 496 kts | 89° |
| 2026-04-30 12:56 | 41.41542 | 62.87226 | 32876 ft | 495 kts | 89° |
| 2026-04-30 12:57 | 41.41874 | 62.96354 | 32874 ft | 495 kts | 89° |
| 2026-04-30 12:57 | 41.42200 | 63.05501 | 32872 ft | 496 kts | 89° |
| 2026-04-30 12:58 | 41.42519 | 63.14663 | 32870 ft | 496 kts | 89° |
| 2026-04-30 12:58 | 41.42832 | 63.23867 | 32871 ft | 497 kts | 89° |
| 2026-04-30 12:59 | 41.43136 | 63.32987 | 32869 ft | 496 kts | 89° |
| 2026-04-30 12:59 | 41.43433 | 63.42152 | 32872 ft | 495 kts | 89° |
| 2026-04-30 13:00 | 41.43722 | 63.51314 | 32878 ft | 496 kts | 89° |
| 2026-04-30 13:00 | 41.43957 | 63.58938 | 32874 ft | 495 kts | 89° |
| 2026-04-30 13:01 | 41.44276 | 63.69649 | 32872 ft | 496 kts | 90° |
| 2026-04-30 13:01 | 41.44530 | 63.78793 | 32866 ft | 495 kts | 90° |
| 2026-04-30 13:02 | 41.44775 | 63.87914 | 32866 ft | 494 kts | 90° |
| 2026-04-30 13:02 | 41.45014 | 63.97042 | 32869 ft | 494 kts | 90° |
| 2026-04-30 13:03 | 41.45245 | 64.06145 | 32871 ft | 494 kts | 90° |
| 2026-04-30 13:03 | 41.45470 | 64.15312 | 32890 ft | 494 kts | 90° |
| 2026-04-30 13:04 | 41.45687 | 64.24446 | 32899 ft | 494 kts | 90° |
| 2026-04-30 13:04 | 41.45896 | 64.33547 | 32905 ft | 494 kts | 90° |
| 2026-04-30 13:05 | 41.46100 | 64.42719 | 32912 ft | 493 kts | 90° |
| 2026-04-30 13:06 | 41.46390 | 64.56396 | 32912 ft | 493 kts | 90° |
| 2026-04-30 13:06 | 41.46573 | 64.65447 | 32903 ft | 493 kts | 91° |
| 2026-04-30 13:07 | 41.46751 | 64.74599 | 32892 ft | 493 kts | 91° |
| 2026-04-30 13:07 | 41.46921 | 64.83695 | 32880 ft | 492 kts | 91° |
| 2026-04-30 13:08 | 41.47082 | 64.92760 | 32872 ft | 491 kts | 91° |
| 2026-04-30 13:08 | 41.47238 | 65.01865 | 32865 ft | 492 kts | 91° |
| 2026-04-30 13:09 | 41.47385 | 65.10922 | 32871 ft | 492 kts | 91° |
| 2026-04-30 13:09 | 41.47525 | 65.19963 | 32867 ft | 491 kts | 91° |
| 2026-04-30 13:10 | 41.47659 | 65.29047 | 32865 ft | 490 kts | 91° |
| 2026-04-30 13:10 | 41.47786 | 65.38159 | 32857 ft | 492 kts | 91° |
| 2026-04-30 13:11 | 41.47905 | 65.47215 | 32855 ft | 491 kts | 91° |
| 2026-04-30 13:11 | 41.48017 | 65.56308 | 32856 ft | 490 kts | 91° |
| 2026-04-30 13:12 | 41.48122 | 65.65328 | 32849 ft | 490 kts | 91° |
| 2026-04-30 13:12 | 41.48219 | 65.74432 | 33044 ft | 494 kts | 91° |
| 2026-04-30 13:13 | 41.48284 | 65.83552 | 33769 ft | 493 kts | 92° |
| 2026-04-30 13:13 | 41.48297 | 65.88161 | 34033 ft | 493 kts | 92° |
| 2026-04-30 13:13 | 41.48319 | 65.97245 | 34251 ft | 494 kts | 92° |
| 2026-04-30 13:14 | 41.48330 | 66.01804 | 34387 ft | 494 kts | 92° |
| 2026-04-30 13:14 | 41.48344 | 66.15567 | 34610 ft | 497 kts | 92° |
| 2026-04-30 13:15 | 41.48345 | 66.20132 | 34750 ft | 496 kts | 92° |
| 2026-04-30 13:15 | 41.48342 | 66.29268 | 34855 ft | 490 kts | 91° |
| 2026-04-30 13:16 | 41.48333 | 66.38317 | 34860 ft | 492 kts | 91° |
| 2026-04-30 13:16 | 41.48315 | 66.47481 | 34859 ft | 494 kts | 92° |
| 2026-04-30 13:17 | 41.48101 | 66.61122 | 34868 ft | 491 kts | 100° |
| 2026-04-30 13:18 | 41.46310 | 66.74233 | 34868 ft | 489 kts | 103° |
| 2026-04-30 13:18 | 41.44378 | 66.87588 | 34884 ft | 489 kts | 103° |
| 2026-04-30 13:19 | 41.43077 | 66.96448 | 34879 ft | 489 kts | 103° |
| 2026-04-30 13:19 | 41.41758 | 67.05361 | 34601 ft | 487 kts | 103° |
| 2026-04-30 13:20 | 41.41119 | 67.09666 | 34279 ft | 477 kts | 103° |
| 2026-04-30 13:20 | 41.40472 | 67.14012 | 33757 ft | 471 kts | 104° |
| 2026-04-30 13:20 | 41.39840 | 67.18232 | 33148 ft | 465 kts | 103° |
| 2026-04-30 13:20 | 41.39217 | 67.22386 | 32530 ft | 461 kts | 103° |
| 2026-04-30 13:21 | 41.38592 | 67.26545 | 31902 ft | 462 kts | 103° |
| 2026-04-30 13:21 | 41.37953 | 67.30777 | 31288 ft | 466 kts | 103° |
| 2026-04-30 13:21 | 41.37318 | 67.34975 | 30667 ft | 470 kts | 103° |
| 2026-04-30 13:22 | 41.36028 | 67.43473 | 29389 ft | 470 kts | 103° |
| 2026-04-30 13:22 | 41.35379 | 67.47734 | 28731 ft | 467 kts | 103° |
| 2026-04-30 13:22 | 41.34105 | 67.56081 | 27509 ft | 456 kts | 103° |
| 2026-04-30 13:23 | 41.33477 | 67.60167 | 26941 ft | 451 kts | 103° |
| 2026-04-30 13:23 | 41.32229 | 67.68263 | 25859 ft | 447 kts | 103° |
| 2026-04-30 13:24 | 41.30981 | 67.76331 | 24823 ft | 443 kts | 103° |
| 2026-04-30 13:24 | 41.29739 | 67.84310 | 23316 ft | 439 kts | 103° |
| 2026-04-30 13:25 | 41.28507 | 67.92181 | 21750 ft | 437 kts | 102° |
| 2026-04-30 13:25 | 41.27506 | 68.00046 | 20459 ft | 428 kts | 100° |
| 2026-04-30 13:26 | 41.26112 | 68.11471 | 18902 ft | 409 kts | 99° |
| 2026-04-30 13:26 | 41.25205 | 68.18830 | 17957 ft | 395 kts | 99° |
| 2026-04-30 13:27 | 41.24336 | 68.25834 | 17113 ft | 385 kts | 99° |
| 2026-04-30 13:28 | 41.23013 | 68.36439 | 15809 ft | 384 kts | 99° |
| 2026-04-30 13:28 | 41.22145 | 68.43348 | 14970 ft | 379 kts | 99° |
| 2026-04-30 13:28 | 41.21708 | 68.46810 | 14554 ft | 378 kts | 99° |
| 2026-04-30 13:29 | 41.20850 | 68.53591 | 13742 ft | 372 kts | 99° |
| 2026-04-30 13:29 | 41.19995 | 68.60313 | 12947 ft | 369 kts | 98° |
| 2026-04-30 13:30 | 41.18719 | 68.70290 | 11741 ft | 362 kts | 99° |
| 2026-04-30 13:31 | 41.17878 | 68.76821 | 10933 ft | 357 kts | 99° |
| 2026-04-30 13:31 | 41.16647 | 68.86334 | 10116 ft | 332 kts | 99° |
| 2026-04-30 13:32 | 41.15897 | 68.92091 | 10080 ft | 299 kts | 99° |
| 2026-04-30 13:32 | 41.15220 | 68.97276 | 9891 ft | 279 kts | 99° |
| 2026-04-30 13:33 | 41.14539 | 69.02475 | 9547 ft | 291 kts | 99° |
| 2026-04-30 13:33 | 41.13851 | 69.07707 | 9052 ft | 285 kts | 99° |
| 2026-04-30 13:34 | 41.13616 | 69.10301 | 8764 ft | 278 kts | 86° |
| 2026-04-30 13:34 | 41.14394 | 69.17849 | 7926 ft | 276 kts | 81° |
| 2026-04-30 13:35 | 41.14676 | 69.20390 | 7638 ft | 274 kts | 81° |
| 2026-04-30 13:35 | 41.15229 | 69.25324 | 7581 ft | 277 kts | 81° |
| 2026-04-30 13:36 | 41.15804 | 69.30444 | 7511 ft | 278 kts | 81° |
| 2026-04-30 13:36 | 41.16091 | 69.32994 | 7400 ft | 279 kts | 81° |
| 2026-04-30 13:36 | 41.16658 | 69.38058 | 6957 ft | 275 kts | 81° |
| 2026-04-30 13:37 | 41.16935 | 69.40534 | 6598 ft | 271 kts | 81° |
| 2026-04-30 13:37 | 41.17487 | 69.45464 | 5972 ft | 269 kts | 80° |
| 2026-04-30 13:38 | 41.18461 | 69.50240 | 5397 ft | 267 kts | 50° |
| 2026-04-30 13:38 | 41.19862 | 69.51821 | 5023 ft | 267 kts | 22° |
| 2026-04-30 13:38 | 41.23503 | 69.52175 | 4228 ft | 262 kts | 355° |
| 2026-04-30 13:39 | 41.26849 | 69.50666 | 3616 ft | 255 kts | 311° |
| 2026-04-30 13:39 | 41.27835 | 69.46590 | 3431 ft | 223 kts | 263° |
| 2026-04-30 13:40 | 41.27617 | 69.44637 | 3456 ft | 203 kts | 263° |
| 2026-04-30 13:40 | 41.27439 | 69.42832 | 3246 ft | 194 kts | 263° |
| 2026-04-30 13:40 | 41.27261 | 69.41125 | 2991 ft | 180 kts | 262° |
| 2026-04-30 13:40 | 41.27147 | 69.40059 | 2842 ft | 168 kts | 263° |
| 2026-04-30 13:41 | 41.26940 | 69.38133 | 2570 ft | 146 kts | 263° |
| 2026-04-30 13:41 | 41.26794 | 69.36797 | 2411 ft | 150 kts | 262° |
| 2026-04-30 13:41 | 41.26639 | 69.35380 | 2229 ft | 157 kts | 262° |
| 2026-04-30 13:41 | 41.26481 | 69.33948 | 2014 ft | 157 kts | 262° |
| 2026-04-30 13:42 | 41.26324 | 69.32512 | 1800 ft | 156 kts | 263° |
| 2026-04-30 13:42 | 41.26171 | 69.31113 | 1604 ft | 152 kts | 263° |
| 2026-04-30 13:42 | 41.25897 | 69.28571 | 1424 ft | 97 kts | 262° |
| 2026-04-30 13:43 | 41.25820 | 69.27882 | 1423 ft | 61 kts | 262° |
| 2026-04-30 13:43 | 41.25791 | 69.27611 | 1423 ft | 13 kts | 263° |
| 2026-04-30 13:43 | 41.25812 | 69.27531 | 1423 ft | 7 kts | 320° |
| 2026-04-30 13:43 | 41.25859 | 69.27480 | 1423 ft | 10 kts | 319° |
| 2026-04-30 13:44 | 41.25911 | 69.27419 | 1423 ft | 8 kts | 318° |
| 2026-04-30 13:44 | 41.25957 | 69.27366 | 1423 ft | 8 kts | 318° |
| 2026-04-30 13:44 | 41.25980 | 69.27335 | 1423 ft | 2 kts | 301° |
| 2026-04-30 13:44 | 41.25986 | 69.27311 | 1423 ft | 4 kts | 277° |
| 2026-04-30 13:45 | 41.25981 | 69.27225 | 1423 ft | 2 kts | 262° |
| 2026-04-30 13:45 | 41.25980 | 69.27209 | 1423 ft | 2 kts | 262° |
| 2026-04-30 13:45 | 41.25979 | 69.27206 | 1423 ft | 0 kts | 262° |